Time;durP1;ratioP1;P1;durP2;ratioP2;P2;SDS_P1;SDS_P2;PMS_P1;PMS_P2;Temp;Humidity;BMP_temperature;BMP_pressure;BME280_temperature;BME280_humidity;BME280_pressure;Samples;Min_cycle;Max_cycle;Signal;HPM_P1;HPM_P2
2023/09/10 00:00:34;;;;;;;14.43;10.02;;;;;;;;;;5070062;28;20104;-73
2023/09/10 00:03:00;;;;;;;12.02;9.70;;;;;;;;;;5033182;28;20021;-74
2023/09/10 00:05:25;;;;;;;16.90;9.95;;;;;;;;;;5051198;28;20461;-72
2023/09/10 00:07:51;;;;;;;14.13;9.25;;;;;;;;;;5032692;28;20037;-74
2023/09/10 00:10:17;;;;;;;13.75;10.13;;;;;;;;;;5033063;28;20454;-74
2023/09/10 00:12:43;;;;;;;15.70;10.15;;;;;;;;;;5050752;28;20048;-75
2023/09/10 00:15:09;;;;;;;18.05;10.82;;;;;;;;;;5032931;28;20024;-75
2023/09/10 00:17:34;;;;;;;17.77;11.65;;;;;;;;;;5032800;28;20501;-73
2023/09/10 00:20:00;;;;;;;16.35;10.95;;;;;;;;;;5032435;28;20024;-74
2023/09/10 00:22:25;;;;;;;15.70;10.88;;;;;;;;;;5032993;28;20385;-74
2023/09/10 00:24:51;;;;;;;14.40;9.68;;;;;;;;;;5050677;28;20048;-73
2023/09/10 00:27:16;;;;;;;17.80;10.55;;;;;;;;;;5050839;28;20640;-73
2023/09/10 00:29:42;;;;;;;12.88;9.88;;;;;;;;;;5032565;28;20029;-72
2023/09/10 00:32:07;;;;;;;15.27;10.98;;;;;;;;;;5050821;28;20036;-73
2023/09/10 00:34:33;;;;;;;14.20;10.48;;;;;;;;;;5050913;28;20029;-74
2023/09/10 00:37:00;;;;;;;18.63;10.57;;;;;;;;;;5032922;28;20021;-73
2023/09/10 00:39:27;;;;;;;15.40;10.73;;;;;;;;;;5032637;28;20373;-74
2023/09/10 00:41:53;;;;;;;14.43;10.45;;;;;;;;;;5050633;28;20486;-74
2023/09/10 00:44:20;;;;;;;16.42;10.52;;;;;;;;;;5032541;28;20072;-74
2023/09/10 00:46:46;;;;;;;15.40;10.68;;;;;;;;;;5032582;28;20028;-74
2023/09/10 00:49:12;;;;;;;13.20;9.45;;;;;;;;;;5032773;28;20032;-73
2023/09/10 00:51:38;;;;;;;13.70;10.18;;;;;;;;;;5033086;28;20393;-72
2023/09/10 00:54:05;;;;;;;14.95;10.18;;;;;;;;;;5051722;28;20033;-73
2023/09/10 00:56:30;;;;;;;16.45;10.00;;;;;;;;;;5051963;28;20033;-73
2023/09/10 00:58:56;;;;;;;17.63;10.68;;;;;;;;;;5050992;28;20057;-74
2023/09/10 01:01:23;;;;;;;13.90;10.07;;;;;;;;;;5033129;28;20021;-74
2023/09/10 01:03:48;;;;;;;18.17;10.25;;;;;;;;;;5050145;28;20370;-73
2023/09/10 01:06:14;;;;;;;19.40;10.23;;;;;;;;;;5032603;28;20025;-73
2023/09/10 01:08:40;;;;;;;12.68;9.60;;;;;;;;;;5050137;28;20035;-74
2023/09/10 01:11:26;;;;;;;14.70;10.13;;;;;;;;;;5050217;28;20036;-74
2023/09/10 01:14:13;;;;;;;18.98;12.77;;;;;;;;;;5031684;28;20068;-75
2023/09/10 01:16:51;;;;;;;19.85;10.52;;;;;;;;;;5032069;28;20039;-74
2023/09/10 01:19:47;;;;;;;15.52;10.32;;;;;;;;;;5032356;28;20030;-74
2023/09/10 01:22:19;;;;;;;13.30;9.75;;;;;;;;;;5048142;28;20064;-74
2023/09/10 01:24:50;;;;;;;15.82;11.00;;;;;;;;;;5031899;28;20029;-73
2023/09/10 01:27:16;;;;;;;15.68;10.18;;;;;;;;;;5050071;28;20112;-74
2023/09/10 01:29:43;;;;;;;16.38;10.77;;;;;;;;;;5031936;28;20117;-74
2023/09/10 01:32:21;;;;;;;17.52;10.75;;;;;;;;;;5031605;28;20036;-73
2023/09/10 01:34:59;;;;;;;16.20;9.63;;;;;;;;;;5031421;28;20048;-73
2023/09/10 01:37:53;;;;;;;14.48;9.32;;;;;;;;;;5031570;28;20025;-73
2023/09/10 01:40:26;;;;;;;15.15;9.75;;;;;;;;;;5028229;28;20537;-74
2023/09/10 01:42:51;;;;;;;16.63;9.85;;;;;;;;;;5030861;28;20074;-74
2023/09/10 01:45:18;;;;;;;15.00;9.63;;;;;;;;;;5030880;28;20025;-73
2023/09/10 01:47:44;;;;;;;18.40;10.95;;;;;;;;;;5030781;28;20025;-73
2023/09/10 01:50:10;;;;;;;13.10;9.95;;;;;;;;;;5031402;28;20539;-74
2023/09/10 01:52:35;;;;;;;15.45;9.88;;;;;;;;;;5031743;28;20025;-74
2023/09/10 01:55:01;;;;;;;18.00;11.80;;;;;;;;;;5031647;28;20433;-74
2023/09/10 01:57:26;;;;;;;20.38;10.88;;;;;;;;;;5049278;28;20095;-73
2023/09/10 01:59:52;;;;;;;13.45;10.50;;;;;;;;;;5031374;28;20584;-73
2023/09/10 02:02:18;;;;;;;17.27;11.70;;;;;;;;;;5031660;28;20048;-73
2023/09/10 02:04:43;;;;;;;17.08;12.13;;;;;;;;;;5031614;28;20427;-72
2023/09/10 02:07:09;;;;;;;20.00;10.40;;;;;;;;;;5049814;28;20028;-74
2023/09/10 02:09:34;;;;;;;16.98;11.00;;;;;;;;;;5031592;28;20462;-73
2023/09/10 02:12:00;;;;;;;15.55;11.30;;;;;;;;;;5031521;28;20489;-73
2023/09/10 02:14:25;;;;;;;15.00;10.68;;;;;;;;;;5031077;28;20021;-74
2023/09/10 02:16:51;;;;;;;14.82;10.70;;;;;;;;;;5049335;28;20056;-73
2023/09/10 02:19:16;;;;;;;13.88;10.13;;;;;;;;;;5031435;28;20025;-73
2023/09/10 02:21:42;;;;;;;14.13;10.38;;;;;;;;;;5049304;28;20397;-74
2023/09/10 02:24:08;;;;;;;15.80;11.93;;;;;;;;;;5031901;28;20032;-73
2023/09/10 02:26:33;;;;;;;14.45;10.73;;;;;;;;;;5032084;28;20112;-73
2023/09/10 02:28:59;;;;;;;20.45;11.10;;;;;;;;;;5049771;28;20028;-74
2023/09/10 02:31:25;;;;;;;12.90;10.25;;;;;;;;;;5032081;28;20025;-73
2023/09/10 02:33:51;;;;;;;17.55;10.38;;;;;;;;;;5030840;28;20104;-73
2023/09/10 02:36:16;;;;;;;16.70;10.65;;;;;;;;;;5049415;28;20096;-73
2023/09/10 02:38:42;;;;;;;15.45;9.70;;;;;;;;;;5049318;28;20028;-74
2023/09/10 02:41:07;;;;;;;11.57;9.18;;;;;;;;;;5031296;28;20025;-73
2023/09/10 02:43:33;;;;;;;13.82;9.75;;;;;;;;;;5033860;28;20102;-72
2023/09/10 02:46:00;;;;;;;13.25;9.98;;;;;;;;;;5053051;28;20445;-73
2023/09/10 02:48:25;;;;;;;14.25;10.18;;;;;;;;;;5052668;28;20090;-73
2023/09/10 02:50:51;;;;;;;11.85;9.55;;;;;;;;;;5034086;28;20021;-73
2023/09/10 02:53:16;;;;;;;15.95;10.35;;;;;;;;;;5015618;28;20021;-73
2023/09/10 02:55:42;;;;;;;14.10;10.35;;;;;;;;;;5016008;28;20389;-74
2023/09/10 02:58:07;;;;;;;16.25;11.02;;;;;;;;;;5033637;28;20053;-73
2023/09/10 03:00:33;;;;;;;14.20;10.48;;;;;;;;;;5034462;28;20025;-73
2023/09/10 03:02:59;;;;;;;12.18;9.18;;;;;;;;;;5016461;28;20025;-73
2023/09/10 03:05:24;;;;;;;14.27;10.10;;;;;;;;;;5034295;28;20032;-74
2023/09/10 03:07:52;;;;;;;15.93;10.73;;;;;;;;;;5016832;28;20496;-74
2023/09/10 03:10:17;;;;;;;14.68;10.25;;;;;;;;;;5016987;28;20188;-72
2023/09/10 03:12:43;;;;;;;14.23;11.07;;;;;;;;;;5017258;28;20448;-75
2023/09/10 03:15:09;;;;;;;14.60;9.25;;;;;;;;;;5035136;28;20021;-73
2023/09/10 03:17:34;;;;;;;14.77;10.10;;;;;;;;;;5033063;28;20056;-75
2023/09/10 03:20:00;;;;;;;15.50;9.10;;;;;;;;;;5014694;28;20033;-73
2023/09/10 03:22:25;;;;;;;14.80;11.07;;;;;;;;;;5014369;28;20116;-73
2023/09/10 03:24:51;;;;;;;14.15;10.07;;;;;;;;;;5032078;28;20025;-73
2023/09/10 03:27:17;;;;;;;13.18;9.90;;;;;;;;;;5014238;28;20018;-73
2023/09/10 03:29:44;;;;;;;14.48;9.35;;;;;;;;;;5032126;28;20040;-73
2023/09/10 03:32:09;;;;;;;17.23;10.63;;;;;;;;;;5014364;28;20029;-73
2023/09/10 03:34:35;;;;;;;13.77;9.30;;;;;;;;;;5014277;28;20106;-76
2023/09/10 03:37:00;;;;;;;14.65;9.75;;;;;;;;;;5031809;28;20025;-73
2023/09/10 03:39:27;;;;;;;13.05;9.85;;;;;;;;;;5032200;28;20460;-74
2023/09/10 03:41:53;;;;;;;15.32;10.80;;;;;;;;;;5031767;28;20021;-73
2023/09/10 03:44:19;;;;;;;15.10;10.10;;;;;;;;;;5013950;28;20481;-73
2023/09/10 03:46:45;;;;;;;12.77;9.95;;;;;;;;;;4997405;28;20040;-75
2023/09/10 03:49:12;;;;;;;14.45;9.93;;;;;;;;;;5013858;28;20017;-73
2023/09/10 03:51:39;;;;;;;13.57;9.68;;;;;;;;;;5013812;28;20049;-73
2023/09/10 03:54:05;;;;;;;14.40;9.85;;;;;;;;;;5012876;28;20565;-74
2023/09/10 03:56:31;;;;;;;15.00;10.23;;;;;;;;;;5031784;28;20021;-73
2023/09/10 03:58:56;;;;;;;14.32;10.00;;;;;;;;;;5013599;28;20144;-73
2023/09/10 04:01:22;;;;;;;12.40;9.48;;;;;;;;;;5031517;28;20124;-71
2023/09/10 04:03:47;;;;;;;13.45;9.60;;;;;;;;;;5031111;28;20021;-73
2023/09/10 04:06:13;;;;;;;13.60;9.75;;;;;;;;;;5031194;28;20457;-73
2023/09/10 04:08:38;;;;;;;17.20;9.90;;;;;;;;;;5012998;28;20021;-72
2023/09/10 04:11:07;;;;;;;13.48;8.85;;;;;;;;;;5013416;28;20048;-74
2023/09/10 04:13:33;;;;;;;13.60;9.27;;;;;;;;;;5030750;28;20025;-73
2023/09/10 04:15:59;;;;;;;18.02;10.18;;;;;;;;;;5013099;28;20067;-74
2023/09/10 04:18:24;;;;;;;16.98;10.30;;;;;;;;;;5013447;28;20132;-73
2023/09/10 04:20:49;;;;;;;12.70;9.57;;;;;;;;;;5030695;28;20033;-72
2023/09/10 04:23:15;;;;;;;12.50;9.77;;;;;;;;;;5031387;28;20108;-72
2023/09/10 04:25:41;;;;;;;15.23;9.00;;;;;;;;;;5031269;28;20126;-73
2023/09/10 04:28:06;;;;;;;12.02;9.30;;;;;;;;;;5013145;28;20637;-72
2023/09/10 04:30:32;;;;;;;16.65;10.60;;;;;;;;;;5031270;28;20021;-73
2023/09/10 04:32:57;;;;;;;13.30;9.50;;;;;;;;;;5013160;28;20026;-73
2023/09/10 04:35:23;;;;;;;17.02;9.13;;;;;;;;;;5031267;28;20119;-73
2023/09/10 04:37:48;;;;;;;13.05;9.55;;;;;;;;;;5012971;28;20091;-74
2023/09/10 04:40:14;;;;;;;13.75;9.57;;;;;;;;;;5013143;28;20028;-73
2023/09/10 04:42:39;;;;;;;14.93;10.40;;;;;;;;;;5012573;28;20033;-73
2023/09/10 04:45:06;;;;;;;15.50;9.73;;;;;;;;;;5030312;28;20029;-73
2023/09/10 04:47:31;;;;;;;13.93;9.68;;;;;;;;;;5012738;28;20025;-73
2023/09/10 04:49:57;;;;;;;13.73;9.68;;;;;;;;;;5012483;28;20629;-74
2023/09/10 04:52:22;;;;;;;14.48;9.52;;;;;;;;;;5030350;28;20029;-74
2023/09/10 04:54:48;;;;;;;15.48;9.43;;;;;;;;;;5030227;28;20029;-73
2023/09/10 04:57:13;;;;;;;13.05;8.70;;;;;;;;;;5012530;28;20381;-73
2023/09/10 04:59:39;;;;;;;12.50;9.30;;;;;;;;;;5012813;28;20133;-73
2023/09/10 05:02:04;;;;;;;23.00;14.35;;;;;;;;;;5030285;28;20017;-74
2023/09/10 05:04:30;;;;;;;16.25;10.20;;;;;;;;;;5012918;28;20013;-74
2023/09/10 05:06:58;;;;;;;16.67;9.68;;;;;;;;;;5030290;28;20033;-73
2023/09/10 05:09:23;;;;;;;15.73;9.40;;;;;;;;;;5014942;28;20060;-73
2023/09/10 05:11:49;;;;;;;13.85;9.93;;;;;;;;;;5032823;28;20029;-72
2023/09/10 05:14:16;;;;;;;12.45;8.82;;;;;;;;;;5014514;28;20128;-72
2023/09/10 05:16:41;;;;;;;15.48;9.25;;;;;;;;;;5014863;28;20033;-73
2023/09/10 05:19:07;;;;;;;13.35;9.55;;;;;;;;;;5031793;28;20030;-75
2023/09/10 05:21:33;;;;;;;16.60;9.73;;;;;;;;;;5032558;28;20029;-74
2023/09/10 05:23:58;;;;;;;13.63;9.05;;;;;;;;;;5032274;28;20053;-73
2023/09/10 05:26:24;;;;;;;14.48;9.80;;;;;;;;;;5031793;28;20354;-73
2023/09/10 05:28:49;;;;;;;14.50;8.70;;;;;;;;;;5014565;28;20025;-73
2023/09/10 05:31:15;;;;;;;15.50;10.02;;;;;;;;;;5013076;28;20029;-73
2023/09/10 05:33:40;;;;;;;13.65;10.10;;;;;;;;;;5012335;28;20026;-74
2023/09/10 05:36:06;;;;;;;14.30;9.18;;;;;;;;;;5011967;28;20036;-73
2023/09/10 05:38:32;;;;;;;14.57;10.02;;;;;;;;;;5012160;28;20457;-73
2023/09/10 05:41:02;;;;;;;12.60;9.30;;;;;;;;;;5011864;28;20125;-72
2023/09/10 05:43:29;;;;;;;13.63;9.07;;;;;;;;;;5012009;28;20022;-74
2023/09/10 05:45:55;;;;;;;12.20;9.27;;;;;;;;;;5029947;28;20029;-74
2023/09/10 05:48:22;;;;;;;12.75;9.07;;;;;;;;;;5012116;28;20021;-73
2023/09/10 05:50:48;;;;;;;13.73;9.38;;;;;;;;;;5030396;28;20488;-73
2023/09/10 05:53:13;;;;;;;12.35;8.63;;;;;;;;;;5029342;28;20072;-72
2023/09/10 05:55:42;;;;;;;13.80;9.50;;;;;;;;;;5029638;28;20027;-73
2023/09/10 05:58:09;;;;;;;15.13;9.27;;;;;;;;;;4995401;28;20087;-73
2023/09/10 06:00:35;;;;;;;19.83;10.32;;;;;;;;;;5029722;28;20099;-73
2023/09/10 06:03:02;;;;;;;13.20;9.30;;;;;;;;;;5011685;28;20496;-73
2023/09/10 06:05:27;;;;;;;14.55;9.77;;;;;;;;;;5012186;28;20396;-74
2023/09/10 06:07:53;;;;;;;15.93;9.77;;;;;;;;;;5011982;28;20026;-74
2023/09/10 06:10:18;;;;;;;15.55;9.20;;;;;;;;;;5011878;28;20033;-74
2023/09/10 06:12:44;;;;;;;14.10;9.05;;;;;;;;;;5011862;28;20021;-74
2023/09/10 06:15:10;;;;;;;14.15;9.35;;;;;;;;;;5011701;28;20046;-73
2023/09/10 06:17:36;;;;;;;13.25;9.32;;;;;;;;;;5030720;28;20397;-74
2023/09/10 06:20:03;;;;;;;10.43;8.80;;;;;;;;;;5033087;28;20029;-74
2023/09/10 06:22:29;;;;;;;19.85;11.02;;;;;;;;;;5015334;28;20028;-76
2023/09/10 06:24:55;;;;;;;16.65;8.88;;;;;;;;;;5015033;28;20018;-73
2023/09/10 06:27:20;;;;;;;14.57;9.65;;;;;;;;;;5015016;28;20021;-72
2023/09/10 06:29:46;;;;;;;14.30;9.57;;;;;;;;;;5015477;28;20160;-74
2023/09/10 06:32:12;;;;;;;13.25;8.63;;;;;;;;;;5032808;28;20101;-74
2023/09/10 06:34:37;;;;;;;13.25;9.45;;;;;;;;;;5033057;28;20108;-73
2023/09/10 06:37:04;;;;;;;16.98;8.98;;;;;;;;;;5033139;28;20526;-72
2023/09/10 06:39:30;;;;;;;12.80;9.93;;;;;;;;;;5015092;28;20140;-75
2023/09/10 06:41:57;;;;;;;14.23;9.45;;;;;;;;;;5015126;28;20458;-74
2023/09/10 06:44:23;;;;;;;13.40;9.40;;;;;;;;;;5032434;28;20048;-77
2023/09/10 06:46:48;;;;;;;13.82;8.45;;;;;;;;;;5014950;28;20037;-77
2023/09/10 06:49:14;;;;;;;13.05;9.30;;;;;;;;;;5014468;28;20025;-77
2023/09/10 06:51:39;;;;;;;13.85;9.18;;;;;;;;;;5032751;28;20025;-78
2023/09/10 06:54:05;;;;;;;11.98;9.25;;;;;;;;;;5014569;28;20091;-77
2023/09/10 06:56:31;;;;;;;14.45;8.90;;;;;;;;;;5032693;28;20021;-77
2023/09/10 06:58:56;;;;;;;13.15;8.70;;;;;;;;;;5014598;28;20079;-77
2023/09/10 07:01:22;;;;;;;14.95;9.48;;;;;;;;;;5014806;28;20021;-76
2023/09/10 07:03:51;;;;;;;11.45;8.00;;;;;;;;;;5014960;28;20116;-78
2023/09/10 07:06:17;;;;;;;12.43;8.10;;;;;;;;;;5032794;28;20091;-77
2023/09/10 07:08:43;;;;;;;12.20;9.20;;;;;;;;;;5014621;28;20658;-77
2023/09/10 07:11:08;;;;;;;11.90;9.27;;;;;;;;;;5032289;28;20018;-77
2023/09/10 07:13:36;;;;;;;12.80;8.63;;;;;;;;;;5032290;28;20084;-78
2023/09/10 07:16:02;;;;;;;12.75;9.52;;;;;;;;;;5014326;28;20539;-77
2023/09/10 07:18:32;;;;;;;14.13;9.27;;;;;;;;;;5014465;28;20023;-77
2023/09/10 07:20:59;;;;;;;11.13;9.35;;;;;;;;;;5032389;28;20473;-78
2023/09/10 07:23:25;;;;;;;12.25;8.20;;;;;;;;;;5014258;28;20018;-76
2023/09/10 07:25:51;;;;;;;17.55;9.75;;;;;;;;;;5032398;28;20621;-75
2023/09/10 07:28:16;;;;;;;13.57;8.63;;;;;;;;;;5013970;28;20088;-77
2023/09/10 07:30:42;;;;;;;11.93;8.02;;;;;;;;;;5031953;28;20438;-76
2023/09/10 07:33:08;;;;;;;12.32;9.38;;;;;;;;;;5014296;28;20028;-77
2023/09/10 07:35:33;;;;;;;13.63;8.43;;;;;;;;;;5014384;28;20481;-78
2023/09/10 07:37:59;;;;;;;10.98;8.30;;;;;;;;;;5014174;28;20060;-76
2023/09/10 07:40:24;;;;;;;12.63;9.35;;;;;;;;;;5014306;28;20029;-78
2023/09/10 07:42:51;;;;;;;12.20;8.43;;;;;;;;;;5014366;28;20396;-77
2023/09/10 07:45:16;;;;;;;12.55;8.40;;;;;;;;;;5031706;28;20070;-77
2023/09/10 07:47:42;;;;;;;14.88;9.05;;;;;;;;;;5031930;28;20096;-78
2023/09/10 07:50:08;;;;;;;12.80;8.95;;;;;;;;;;5031983;28;20033;-77
2023/09/10 07:52:34;;;;;;;12.02;8.65;;;;;;;;;;5031727;28;20036;-78
2023/09/10 07:54:59;;;;;;;11.60;8.15;;;;;;;;;;5031608;28;20034;-77
2023/09/10 07:57:25;;;;;;;15.55;9.07;;;;;;;;;;5013686;28;20049;-77
2023/09/10 07:59:51;;;;;;;12.02;8.48;;;;;;;;;;5032115;28;20025;-77
2023/09/10 08:02:17;;;;;;;12.60;9.45;;;;;;;;;;5015888;28;20025;-77
2023/09/10 08:04:43;;;;;;;14.05;9.50;;;;;;;;;;5034094;28;20331;-76
2023/09/10 08:07:10;;;;;;;11.68;9.13;;;;;;;;;;5034386;28;20025;-77
2023/09/10 08:09:37;;;;;;;12.98;9.20;;;;;;;;;;5018348;28;20058;-76
2023/09/10 08:12:03;;;;;;;13.82;9.93;;;;;;;;;;5020029;28;20029;-75
2023/09/10 08:14:29;;;;;;;19.45;9.95;;;;;;;;;;5034590;28;20025;-77
2023/09/10 08:16:55;;;;;;;14.40;9.57;;;;;;;;;;5013665;28;20116;-77
2023/09/10 08:19:20;;;;;;;17.48;10.98;;;;;;;;;;5013446;28;20103;-76
2023/09/10 08:21:46;;;;;;;13.63;9.40;;;;;;;;;;5013324;28;20021;-77
2023/09/10 08:24:13;;;;;;;12.82;10.05;;;;;;;;;;5013633;28;20096;-78
2023/09/10 08:26:38;;;;;;;13.48;8.75;;;;;;;;;;5032168;28;20033;-76
2023/09/10 08:29:04;;;;;;;12.77;9.07;;;;;;;;;;5013426;28;20021;-76
2023/09/10 08:31:30;;;;;;;16.25;9.05;;;;;;;;;;5013352;28;20022;-77
2023/09/10 08:33:55;;;;;;;14.57;9.65;;;;;;;;;;5013026;28;20033;-77
2023/09/10 08:36:21;;;;;;;13.15;9.43;;;;;;;;;;5031189;28;20048;-77
2023/09/10 08:38:46;;;;;;;12.23;8.45;;;;;;;;;;5031169;28;20116;-77
2023/09/10 08:41:18;;;;;;;12.93;8.05;;;;;;;;;;5014103;28;20098;-75
2023/09/10 08:43:52;;;;;;;14.80;9.43;;;;;;;;;;5032625;28;20021;-76
2023/09/10 08:46:22;;;;;;;12.73;9.55;;;;;;;;;;5033038;28;20053;-77
2023/09/10 08:48:50;;;;;;;17.38;10.07;;;;;;;;;;5033112;28;20534;-75
2023/09/10 08:51:16;;;;;;;20.70;9.90;;;;;;;;;;5033591;28;20026;-77
2023/09/10 08:53:43;;;;;;;14.05;9.55;;;;;;;;;;5016815;28;20029;-75
2023/09/10 08:56:09;;;;;;;13.93;9.35;;;;;;;;;;5032887;28;20195;-77
2023/09/10 08:58:38;;;;;;;14.43;10.18;;;;;;;;;;5031415;28;20059;-77
2023/09/10 09:01:05;;;;;;;15.90;9.93;;;;;;;;;;5016151;28;20040;-78
2023/09/10 09:03:32;;;;;;;12.95;9.90;;;;;;;;;;5017367;28;20018;-77
2023/09/10 09:06:02;;;;;;;12.85;9.35;;;;;;;;;;5013207;28;20052;-76
2023/09/10 09:08:33;;;;;;;12.40;9.52;;;;;;;;;;5014061;28;20052;-75
2023/09/10 09:11:03;;;;;;;11.80;9.43;;;;;;;;;;5014218;28;20048;-77
2023/09/10 09:13:33;;;;;;;15.98;10.55;;;;;;;;;;5013165;28;20026;-76
2023/09/10 09:16:00;;;;;;;17.05;10.02;;;;;;;;;;5030911;28;20025;-75
2023/09/10 09:18:27;;;;;;;15.93;10.18;;;;;;;;;;5013110;28;20032;-77
2023/09/10 09:20:56;;;;;;;14.25;10.40;;;;;;;;;;5013848;28;20025;-76
2023/09/10 09:23:30;;;;;;;14.15;9.82;;;;;;;;;;5014254;28;20055;-77
2023/09/10 09:25:57;;;;;;;15.27;10.25;;;;;;;;;;5015270;28;20057;-77
2023/09/10 09:28:23;;;;;;;15.68;11.20;;;;;;;;;;5017689;28;20036;-77
2023/09/10 09:30:49;;;;;;;22.15;11.85;;;;;;;;;;5036301;28;20753;-78
2023/09/10 09:33:15;;;;;;;14.40;10.32;;;;;;;;;;5048403;28;20027;-76
2023/09/10 09:35:41;;;;;;;14.90;10.48;;;;;;;;;;5054057;28;20406;-77
2023/09/10 09:38:11;;;;;;;14.15;10.77;;;;;;;;;;5053069;28;20036;-76
2023/09/10 09:40:37;;;;;;;13.32;10.35;;;;;;;;;;5052516;28;20032;-77
2023/09/10 09:43:07;;;;;;;20.60;10.50;;;;;;;;;;5070304;28;20035;-77
2023/09/10 09:45:33;;;;;;;15.30;9.93;;;;;;;;;;5051442;28;20021;-78
2023/09/10 09:48:00;;;;;;;21.25;11.18;;;;;;;;;;5051267;28;20077;-78
2023/09/10 09:50:26;;;;;;;16.25;10.32;;;;;;;;;;5051346;28;20141;-77
2023/09/10 09:52:54;;;;;;;17.77;10.25;;;;;;;;;;5070864;28;20028;-78
2023/09/10 09:55:19;;;;;;;14.02;10.32;;;;;;;;;;5072993;28;20021;-77
2023/09/10 09:57:51;;;;;;;17.83;11.40;;;;;;;;;;5073484;28;20051;-76
2023/09/10 10:00:17;;;;;;;12.95;10.13;;;;;;;;;;5073365;28;20082;-77
2023/09/10 10:02:44;;;;;;;19.48;10.13;;;;;;;;;;5055338;28;20040;-77
2023/09/10 10:05:09;;;;;;;15.23;9.80;;;;;;;;;;5055235;28;20134;-77
2023/09/10 10:07:40;;;;;;;15.02;9.68;;;;;;;;;;5046101;28;20684;-76
2023/09/10 10:10:06;;;;;;;11.75;9.50;;;;;;;;;;5053411;28;20028;-76
2023/09/10 10:12:32;;;;;;;11.35;9.50;;;;;;;;;;5053060;28;20120;-77
2023/09/10 10:14:59;;;;;;;13.57;8.70;;;;;;;;;;5034995;28;20020;-77
2023/09/10 10:17:26;;;;;;;10.63;8.65;;;;;;;;;;5034722;28;20515;-78
2023/09/10 10:19:52;;;;;;;14.75;8.73;;;;;;;;;;5035166;28;20132;-77
2023/09/10 10:22:19;;;;;;;19.00;9.10;;;;;;;;;;5034909;28;20396;-76
2023/09/10 10:24:45;;;;;;;14.18;9.18;;;;;;;;;;5035487;28;20021;-76
2023/09/10 10:27:13;;;;;;;13.52;8.43;;;;;;;;;;5053282;28;20488;-77
2023/09/10 10:29:40;;;;;;;10.65;8.98;;;;;;;;;;5034826;28;20500;-76
2023/09/10 10:32:13;;;;;;;9.90;8.20;;;;;;;;;;5051778;28;20075;-76
2023/09/10 10:34:47;;;;;;;12.27;8.90;;;;;;;;;;5034216;28;20366;-78
2023/09/10 10:37:44;;;;;;;10.80;8.15;;;;;;;;;;5034248;28;20311;-76
2023/09/10 10:40:26;;;;;;;13.15;7.93;;;;;;;;;;5052316;28;20670;-77
2023/09/10 10:43:03;;;;;;;13.80;8.10;;;;;;;;;;5052798;28;20055;-77
2023/09/10 10:45:30;;;;;;;10.45;7.57;;;;;;;;;;5052664;28;20102;-77
2023/09/10 10:48:00;;;;;;;12.57;7.82;;;;;;;;;;5052894;28;20076;-77
2023/09/10 10:50:26;;;;;;;14.93;8.25;;;;;;;;;;5034257;28;20144;-76
2023/09/10 10:52:59;;;;;;;14.68;8.52;;;;;;;;;;5034629;28;20063;-78
2023/09/10 10:55:27;;;;;;;17.98;8.52;;;;;;;;;;5034584;28;20369;-77
2023/09/10 10:57:54;;;;;;;14.15;8.73;;;;;;;;;;5018106;28;20079;-76
2023/09/10 11:00:20;;;;;;;14.25;8.45;;;;;;;;;;5052429;28;20095;-76
2023/09/10 11:03:08;;;;;;;21.23;9.15;;;;;;;;;;5034415;28;20041;-76
2023/09/10 11:05:54;;;;;;;14.02;8.25;;;;;;;;;;5034541;28;20032;-77
2023/09/10 11:08:39;;;;;;;8.43;7.22;;;;;;;;;;5034090;28;20029;-77
2023/09/10 11:11:41;;;;;;;8.77;7.30;;;;;;;;;;5052220;28;20025;-77
2023/09/10 11:14:09;;;;;;;6.78;6.07;;;;;;;;;;5037180;28;20079;-77
2023/09/10 11:16:36;;;;;;;11.82;6.95;;;;;;;;;;5035573;28;20028;-77
2023/09/10 11:19:03;;;;;;;11.52;7.72;;;;;;;;;;5052251;28;20029;-76
2023/09/10 11:21:53;;;;;;;9.55;7.28;;;;;;;;;;5033985;28;20033;-77
2023/09/10 11:24:19;;;;;;;11.88;7.50;;;;;;;;;;5034270;28;20021;-76
2023/09/10 11:26:46;;;;;;;9.20;7.25;;;;;;;;;;5034826;28;20116;-76
2023/09/10 11:29:16;;;;;;;14.25;8.05;;;;;;;;;;5034794;28;20044;-76
2023/09/10 11:31:45;;;;;;;10.50;7.57;;;;;;;;;;5034415;28;20123;-77
2023/09/10 11:34:23;;;;;;;10.23;7.50;;;;;;;;;;5034223;28;20040;-78
2023/09/10 11:36:55;;;;;;;9.57;6.88;;;;;;;;;;5052362;28;20029;-76
2023/09/10 11:39:21;;;;;;;9.02;6.72;;;;;;;;;;5051570;28;20021;-77
2023/09/10 11:41:49;;;;;;;9.02;7.03;;;;;;;;;;5051875;28;20036;-77
2023/09/10 11:44:16;;;;;;;9.93;6.43;;;;;;;;;;5034573;28;20418;-79
2023/09/10 11:46:42;;;;;;;9.10;6.15;;;;;;;;;;5051966;28;20052;-76
2023/09/10 11:49:08;;;;;;;7.30;6.35;;;;;;;;;;5052264;28;20727;-76
2023/09/10 11:51:51;;;;;;;6.45;5.85;;;;;;;;;;5033586;28;20021;-77
2023/09/10 11:54:17;;;;;;;10.48;6.40;;;;;;;;;;5033550;28;20064;-76
2023/09/10 11:56:51;;;;;;;8.75;5.93;;;;;;;;;;5051502;28;20021;-77
2023/09/10 11:59:19;;;;;;;6.95;5.53;;;;;;;;;;5051499;28;20068;-76
2023/09/10 12:01:44;;;;;;;8.25;6.50;;;;;;;;;;5033457;28;20516;-76
2023/09/10 12:04:11;;;;;;;7.55;6.45;;;;;;;;;;5051650;28;20037;-76
2023/09/10 12:06:37;;;;;;;8.20;6.30;;;;;;;;;;5033253;28;20059;-77
2023/09/10 12:09:04;;;;;;;8.55;5.75;;;;;;;;;;5034163;28;20442;-77
2023/09/10 12:11:31;;;;;;;8.30;5.53;;;;;;;;;;5033443;28;20033;-75
2023/09/10 12:13:57;;;;;;;7.05;6.05;;;;;;;;;;5051099;28;20471;-75
2023/09/10 12:16:23;;;;;;;12.18;6.05;;;;;;;;;;5032943;28;20121;-77
2023/09/10 12:18:48;;;;;;;9.32;6.53;;;;;;;;;;5032979;28;20396;-76
2023/09/10 12:21:15;;;;;;;10.18;6.15;;;;;;;;;;5033005;28;20075;-76
2023/09/10 12:23:41;;;;;;;8.77;6.28;;;;;;;;;;5033027;28;20029;-76
2023/09/10 12:26:11;;;;;;;9.35;6.15;;;;;;;;;;5033663;28;20067;-79
2023/09/10 12:28:37;;;;;;;7.00;6.03;;;;;;;;;;5050878;28;20024;-78
2023/09/10 12:31:04;;;;;;;7.18;5.82;;;;;;;;;;5033288;28;20031;-78
2023/09/10 12:33:30;;;;;;;8.65;6.72;;;;;;;;;;5033172;28;20083;-78
2023/09/10 12:35:56;;;;;;;7.78;5.53;;;;;;;;;;5051250;28;20027;-79
2023/09/10 12:38:22;;;;;;;7.93;5.78;;;;;;;;;;5032872;28;20020;-79
2023/09/10 12:40:50;;;;;;;6.57;5.65;;;;;;;;;;5051238;28;20065;-79
2023/09/10 12:43:23;;;;;;;9.27;6.00;;;;;;;;;;5034048;28;20021;-77
2023/09/10 12:45:49;;;;;;;12.25;5.55;;;;;;;;;;5034103;28;20025;-79
2023/09/10 12:48:19;;;;;;;7.05;5.60;;;;;;;;;;5038417;28;20032;-75
2023/09/10 12:50:46;;;;;;;10.13;5.13;;;;;;;;;;5033746;28;20025;-78
2023/09/10 12:53:12;;;;;;;8.73;5.78;;;;;;;;;;5051638;28;20377;-79
2023/09/10 12:55:38;;;;;;;6.60;5.13;;;;;;;;;;5034104;28;20036;-78
2023/09/10 12:58:06;;;;;;;7.13;6.30;;;;;;;;;;5033173;28;20534;-79
2023/09/10 13:00:32;;;;;;;6.80;6.10;;;;;;;;;;5051067;28;20458;-79
2023/09/10 13:02:58;;;;;;;13.43;6.55;;;;;;;;;;5051766;28;20032;-79
2023/09/10 13:05:23;;;;;;;6.50;5.47;;;;;;;;;;5035111;28;20031;-80
2023/09/10 13:07:49;;;;;;;6.57;5.50;;;;;;;;;;5035860;28;20028;-79
2023/09/10 13:10:16;;;;;;;12.27;6.60;;;;;;;;;;5057749;28;20096;-80
2023/09/10 13:12:41;;;;;;;6.82;5.35;;;;;;;;;;5047452;28;20017;-77
2023/09/10 13:15:07;;;;;;;8.23;5.97;;;;;;;;;;5048791;28;20060;-79
2023/09/10 13:17:33;;;;;;;6.60;5.90;;;;;;;;;;5058709;28;20442;-78
2023/09/10 13:19:59;;;;;;;7.32;6.28;;;;;;;;;;5033317;28;20033;-79
2023/09/10 13:22:25;;;;;;;8.98;6.68;;;;;;;;;;5032846;28;20040;-79
2023/09/10 13:24:51;;;;;;;10.35;6.68;;;;;;;;;;5051580;28;20024;-78
2023/09/10 13:27:16;;;;;;;35.85;32.67;;;;;;;;;;5016038;28;20059;-73
2023/09/10 13:29:43;;;;;;;8.85;6.38;;;;;;;;;;5050918;28;20032;-73
2023/09/10 13:32:09;;;;;;;8.07;6.05;;;;;;;;;;5032086;28;20028;-74
2023/09/10 13:34:34;;;;;;;7.35;6.57;;;;;;;;;;5050281;28;20048;-74
2023/09/10 13:37:03;;;;;;;8.35;6.60;;;;;;;;;;5032184;28;20132;-74
2023/09/10 13:39:32;;;;;;;9.73;6.45;;;;;;;;;;5032229;28;20020;-74
2023/09/10 13:41:58;;;;;;;7.75;6.65;;;;;;;;;;5033656;28;20029;-72
2023/09/10 13:44:23;;;;;;;9.00;6.65;;;;;;;;;;5052214;28;20361;-74
2023/09/10 13:46:50;;;;;;;15.00;7.43;;;;;;;;;;5034996;28;20032;-71
2023/09/10 13:49:15;;;;;;;7.82;6.30;;;;;;;;;;5034370;28;20032;-72
2023/09/10 13:51:42;;;;;;;7.82;5.53;;;;;;;;;;5051804;28;20115;-73
2023/09/10 13:54:08;;;;;;;8.95;6.70;;;;;;;;;;5032495;28;20032;-72
2023/09/10 13:56:34;;;;;;;8.70;7.03;;;;;;;;;;5032068;28;20029;-72
2023/09/10 13:59:01;;;;;;;10.68;6.60;;;;;;;;;;5031126;28;20060;-74
2023/09/10 14:01:27;;;;;;;9.73;6.43;;;;;;;;;;5049459;28;20333;-73
2023/09/10 14:03:53;;;;;;;13.38;10.52;;;;;;;;;;5031227;28;20021;-73
2023/09/10 14:06:19;;;;;;;8.90;6.53;;;;;;;;;;5049444;28;20488;-74
2023/09/10 14:08:44;;;;;;;6.32;5.63;;;;;;;;;;5048886;28;20055;-71
2023/09/10 14:11:10;;;;;;;9.02;6.18;;;;;;;;;;5049546;28;20114;-72
2023/09/10 14:13:35;;;;;;;8.40;6.32;;;;;;;;;;5031500;28;20466;-72
2023/09/10 14:16:01;;;;;;;9.82;6.10;;;;;;;;;;5031462;28;20548;-73
2023/09/10 14:18:26;;;;;;;8.25;5.43;;;;;;;;;;5031220;28;20029;-74
2023/09/10 14:20:52;;;;;;;8.00;6.45;;;;;;;;;;5049530;28;20132;-74
2023/09/10 14:23:18;;;;;;;7.40;6.40;;;;;;;;;;5031159;28;20140;-72
2023/09/10 14:25:47;;;;;;;9.10;6.13;;;;;;;;;;5031029;28;20027;-73
2023/09/10 14:28:14;;;;;;;6.28;5.68;;;;;;;;;;5049164;28;20124;-74